createdAt,value
2023-02-23T00:00:08.671Z,3.15
2023-02-23T00:02:39.829Z,5.00
2023-02-23T00:05:09.136Z,3.97
2023-02-23T00:07:37.398Z,6.57
2023-02-23T00:10:06.377Z,4.32
2023-02-23T00:12:35.930Z,4.82
2023-02-23T00:15:04.350Z,4.00
2023-02-23T00:17:33.690Z,5.80
2023-02-23T00:20:07.645Z,7.28
2023-02-23T00:22:36.419Z,2.55
2023-02-23T00:25:08.717Z,11.10
2023-02-23T00:27:44.361Z,3.58
2023-02-23T00:30:13.980Z,4.30
2023-02-23T00:32:42.404Z,4.30
2023-02-23T00:35:17.151Z,3.25
2023-02-23T00:37:46.708Z,5.20
2023-02-23T00:40:21.364Z,6.45
2023-02-23T00:42:52.349Z,8.57
2023-02-23T00:45:23.108Z,3.58
2023-02-23T00:47:51.995Z,3.58
2023-02-23T00:50:20.756Z,4.03
2023-02-23T00:52:49.032Z,5.05
2023-02-23T00:55:17.233Z,3.00
2023-02-23T00:57:45.686Z,3.03
2023-02-23T01:00:20.214Z,2.80
2023-02-23T01:02:49.461Z,4.65
2023-02-23T01:05:18.012Z,5.03
2023-02-23T01:07:47.519Z,6.68
2023-02-23T01:10:21.768Z,5.55
2023-02-23T01:12:51.732Z,8.02
2023-02-23T01:15:22.298Z,4.15
2023-02-23T01:17:50.584Z,5.38
2023-02-23T01:20:19.370Z,3.75
2023-02-23T01:22:50.325Z,4.57
2023-02-23T01:25:19.650Z,4.53
2023-02-23T01:27:47.930Z,4.60
2023-02-23T01:30:16.906Z,3.80
2023-02-23T01:32:46.815Z,4.57
2023-02-23T01:35:15.404Z,4.78
2023-02-23T01:37:44.596Z,4.15
2023-02-23T01:40:16.017Z,3.28
2023-02-23T01:42:47.818Z,4.82
2023-02-23T01:45:28.273Z,4.78
2023-02-23T01:48:02.132Z,4.38
2023-02-23T01:50:37.251Z,4.50
2023-02-23T01:53:07.089Z,4.82
2023-02-23T01:55:36.093Z,6.78
2023-02-23T01:58:15.642Z,4.57
2023-02-23T02:00:51.501Z,3.33
2023-02-23T02:03:28.746Z,3.33
2023-02-23T02:05:57.926Z,5.97
2023-02-23T02:08:27.726Z,4.95
2023-02-23T02:10:57.557Z,3.42
2023-02-23T02:13:31.051Z,4.07
2023-02-23T02:16:42.491Z,5.47
2023-02-23T02:19:57.622Z,6.72
2023-02-23T02:22:44.757Z,3.95
2023-02-23T02:25:35.739Z,3.67
2023-02-23T02:28:32.772Z,4.35
2023-02-23T02:31:30.277Z,5.70
2023-02-23T02:34:38.019Z,5.40
2023-02-23T02:37:26.981Z,4.82
2023-02-23T02:40:15.762Z,5.10
2023-02-23T02:42:59.477Z,5.30
2023-02-23T02:45:35.786Z,4.82
2023-02-23T02:48:10.828Z,4.20
2023-02-23T02:50:47.322Z,5.07
2023-02-23T02:53:27.840Z,8.43
2023-02-23T02:56:00.371Z,5.10
2023-02-23T02:58:30.417Z,6.72
2023-02-23T03:01:25.366Z,6.25
2023-02-23T03:04:11.530Z,4.32
2023-02-23T03:07:04.670Z,7.53
2023-02-23T03:09:58.915Z,4.35
2023-02-23T03:12:53.605Z,4.25
2023-02-23T03:15:55.258Z,7.15
2023-02-23T03:19:01.755Z,3.42
2023-02-23T03:21:55.420Z,4.03
2023-02-23T03:24:51.139Z,4.90
2023-02-23T03:27:42.238Z,6.65
2023-02-23T03:30:38.749Z,6.30
2023-02-23T03:33:31.973Z,4.32
2023-02-23T03:36:23.681Z,3.47
2023-02-23T03:39:15.557Z,4.13
2023-02-23T03:42:02.870Z,5.90
2023-02-23T03:44:52.578Z,3.00
2023-02-23T03:47:43.271Z,4.93
2023-02-23T03:50:34.944Z,3.35
2023-02-23T03:53:22.701Z,3.55
2023-02-23T03:56:14.209Z,5.65
2023-02-23T03:59:05.312Z,5.10
2023-02-23T04:01:53.723Z,5.28
2023-02-23T04:04:44.298Z,4.00
2023-02-23T04:07:34.736Z,4.53
2023-02-23T04:10:21.317Z,8.82
2023-02-23T04:13:14.116Z,4.00
2023-02-23T04:15:45.950Z,4.60
2023-02-23T04:18:17.312Z,5.25
2023-02-23T04:20:45.698Z,8.35
2023-02-23T04:23:13.917Z,3.80
2023-02-23T04:25:42.134Z,3.90
2023-02-23T04:28:10.316Z,4.60
2023-02-23T04:30:42.067Z,3.63
2023-02-23T04:33:10.875Z,5.70
2023-02-23T04:35:40.498Z,9.23
2023-02-23T04:38:09.040Z,4.07
2023-02-23T04:40:37.875Z,4.10
2023-02-23T04:43:06.105Z,5.70
2023-02-23T04:45:35.067Z,4.82
2023-02-23T04:48:03.287Z,4.28
2023-02-23T04:50:32.613Z,4.00
2023-02-23T04:53:02.362Z,7.43
2023-02-23T04:55:30.557Z,6.22
2023-02-23T04:58:00.402Z,6.88
2023-02-23T05:00:30.435Z,3.72
2023-02-23T05:02:59.021Z,5.82
2023-02-23T05:05:27.311Z,9.18
2023-02-23T05:07:55.690Z,3.97
2023-02-23T05:10:25.732Z,4.05
2023-02-23T05:12:53.946Z,5.80
2023-02-23T05:15:22.538Z,5.50
2023-02-23T05:17:50.746Z,4.28
2023-02-23T05:20:19.145Z,5.15
2023-02-23T05:22:47.345Z,3.72
2023-02-23T05:25:18.156Z,10.05
2023-02-23T05:27:47.722Z,7.82
2023-02-23T05:30:16.118Z,4.75
2023-02-23T05:32:44.922Z,4.70
2023-02-23T05:35:13.156Z,4.55
2023-02-23T05:37:44.712Z,5.07
2023-02-23T05:40:14.072Z,5.20
2023-02-23T05:42:42.325Z,4.80
2023-02-23T05:45:12.506Z,5.03
2023-02-23T05:47:40.701Z,4.70
2023-02-23T05:50:11.481Z,9.05
2023-02-23T05:52:41.579Z,6.03
2023-02-23T05:55:12.659Z,5.72
2023-02-23T05:57:42.775Z,7.80
2023-02-23T06:00:15.460Z,5.40
2023-02-23T06:02:43.676Z,10.95
2023-02-23T06:05:12.968Z,9.63
2023-02-23T06:07:41.442Z,5.30
2023-02-23T06:10:10.745Z,5.88
2023-02-23T06:12:38.945Z,7.80
2023-02-23T06:15:10.843Z,5.22
2023-02-23T06:17:40.456Z,4.60
2023-02-23T06:20:09.314Z,6.20
2023-02-23T06:22:37.605Z,5.72
2023-02-23T06:25:12.614Z,4.80
2023-02-23T06:27:42.327Z,9.82
2023-02-23T06:30:12.526Z,4.60
2023-02-23T06:32:45.053Z,5.13
2023-02-23T06:35:17.064Z,4.72
2023-02-23T06:37:45.925Z,8.48
2023-02-23T06:40:14.419Z,4.47
2023-02-23T06:42:42.629Z,6.45
2023-02-23T06:45:13.292Z,4.63
2023-02-23T06:47:41.824Z,4.75
2023-02-23T06:50:12.884Z,5.80
2023-02-23T06:52:41.413Z,6.80
2023-02-23T06:55:13.231Z,4.35
2023-02-23T06:57:48.294Z,8.48
2023-02-23T07:00:17.893Z,3.88
2023-02-23T07:02:46.313Z,4.95
2023-02-23T07:05:16.334Z,4.22
2023-02-23T07:07:45.690Z,5.30
2023-02-23T07:10:14.458Z,7.13
2023-02-23T07:12:42.676Z,8.60
2023-02-23T07:15:11.898Z,6.25
2023-02-23T07:17:40.117Z,6.63
2023-02-23T07:20:08.982Z,4.60
2023-02-23T07:22:39.897Z,4.35
2023-02-23T07:25:09.684Z,4.85
2023-02-23T07:27:38.199Z,5.05
2023-02-23T07:30:07.556Z,11.85
2023-02-23T07:32:37.402Z,6.88
2023-02-23T07:35:08.889Z,4.70
2023-02-23T07:37:38.444Z,3.50
2023-02-23T07:40:07.626Z,5.75
2023-02-23T07:42:35.944Z,10.85
2023-02-23T07:45:06.666Z,6.68
2023-02-23T07:47:35.366Z,13.98
2023-02-23T07:50:03.663Z,7.40
2023-02-23T07:52:31.916Z,7.60
2023-02-23T07:55:01.580Z,6.78
2023-02-23T07:57:29.855Z,7.68
2023-02-23T07:59:58.030Z,5.38
2023-02-23T08:02:26.516Z,4.15
2023-02-23T08:04:55.220Z,5.57
2023-02-23T08:07:24.699Z,3.75
2023-02-23T08:09:55.022Z,12.65
2023-02-23T08:12:24.775Z,3.60
2023-02-23T08:14:53.691Z,6.32
2023-02-23T08:17:22.027Z,6.18
2023-02-23T08:19:50.284Z,5.75
2023-02-23T08:22:18.765Z,18.67
2023-02-23T08:24:46.946Z,9.32
2023-02-23T08:27:15.232Z,5.75
2023-02-23T08:29:44.815Z,5.57
2023-02-23T08:32:13.656Z,4.70
2023-02-23T08:34:45.264Z,5.72
2023-02-23T08:37:13.584Z,9.65
2023-02-23T08:39:43.574Z,5.13
2023-02-23T08:42:11.911Z,9.05
2023-02-23T08:44:40.173Z,5.28
2023-02-23T08:47:12.210Z,6.65
2023-02-23T08:49:42.718Z,4.95
2023-02-23T08:52:10.910Z,5.30
2023-02-23T08:54:39.140Z,5.25
2023-02-23T08:57:07.396Z,7.38
2023-02-23T08:59:35.630Z,7.68
2023-02-23T09:02:03.884Z,10.07
2023-02-23T09:04:35.227Z,5.90
2023-02-23T09:07:03.755Z,4.90
2023-02-23T09:09:32.665Z,11.70
2023-02-23T09:12:00.847Z,5.63
2023-02-23T09:14:29.795Z,8.90
2023-02-23T09:16:58.061Z,6.27
2023-02-23T09:19:29.296Z,5.63
2023-02-23T09:21:58.930Z,8.07
2023-02-23T09:24:27.154Z,5.80
2023-02-23T09:26:55.365Z,11.33
2023-02-23T09:29:23.594Z,6.83
2023-02-23T09:31:53.171Z,5.30
2023-02-23T09:34:21.500Z,9.40
2023-02-23T09:36:52.518Z,7.37
2023-02-23T09:39:35.789Z,9.10
2023-02-23T09:42:25.746Z,8.07
2023-02-23T09:45:09.160Z,10.73
2023-02-23T09:47:52.194Z,11.70
2023-02-23T09:50:24.829Z,5.10
2023-02-23T09:52:59.521Z,9.03
2023-02-23T09:55:30.775Z,7.80
2023-02-23T09:58:07.025Z,4.43
2023-02-23T10:00:41.905Z,6.07
2023-02-23T10:03:20.474Z,9.00
2023-02-23T10:05:53.395Z,13.93
2023-02-23T10:08:39.662Z,8.37
2023-02-23T10:11:18.715Z,7.27
2023-02-23T10:13:55.460Z,11.73
2023-02-23T10:16:27.741Z,10.27
2023-02-23T10:19:05.185Z,11.67
2023-02-23T10:21:40.065Z,7.57
2023-02-23T10:24:14.086Z,9.23
2023-02-23T10:26:52.059Z,6.93
2023-02-23T10:29:52.825Z,20.23
2023-02-23T10:32:27.517Z,6.93
2023-02-23T10:34:58.085Z,8.03
2023-02-23T10:37:27.648Z,11.37
2023-02-23T10:39:59.081Z,7.57
2023-02-23T10:42:30.061Z,8.53
2023-02-23T10:44:59.361Z,7.90
2023-02-23T10:47:29.917Z,11.30
2023-02-23T10:49:59.302Z,7.23
2023-02-23T10:52:34.500Z,6.97
2023-02-23T10:55:06.414Z,5.83
2023-02-23T10:57:40.236Z,8.30
2023-02-23T11:00:32.912Z,7.87
2023-02-23T11:03:03.370Z,6.67
2023-02-23T11:05:36.949Z,8.20
2023-02-23T11:08:24.057Z,12.57
2023-02-23T11:11:19.165Z,6.90
2023-02-23T11:13:51.124Z,7.23
2023-02-23T11:16:21.829Z,6.33
2023-02-23T11:18:55.703Z,8.03
2023-02-23T11:21:27.597Z,8.80
2023-02-23T11:23:59.012Z,16.80
2023-02-23T11:26:37.834Z,6.63
2023-02-23T11:29:16.159Z,7.27
2023-02-23T11:31:50.600Z,7.50
2023-02-23T11:34:30.487Z,7.00
2023-02-23T11:37:04.323Z,10.10
2023-02-23T11:39:33.093Z,8.57
2023-02-23T11:42:21.027Z,5.60
2023-02-23T11:45:03.703Z,11.07
2023-02-23T11:47:37.890Z,7.57
2023-02-23T11:50:09.261Z,10.43
2023-02-23T11:52:37.510Z,9.27
2023-02-23T11:55:08.711Z,7.30
2023-02-23T11:57:37.560Z,7.70
2023-02-23T12:00:14.393Z,5.67
2023-02-23T12:02:51.974Z,6.17
2023-02-23T12:05:23.238Z,7.87
2023-02-23T12:07:59.448Z,12.03
2023-02-23T12:10:32.003Z,7.37
2023-02-23T12:13:09.892Z,6.63
2023-02-23T12:15:48.084Z,6.80
2023-02-23T12:18:34.334Z,6.77
2023-02-23T12:21:21.136Z,9.50
2023-02-23T12:23:53.089Z,7.30
2023-02-23T12:26:26.458Z,8.93
2023-02-23T12:29:00.603Z,5.93
2023-02-23T12:31:40.437Z,9.83
2023-02-23T12:34:17.285Z,5.77
2023-02-23T12:36:50.956Z,5.40
2023-02-23T12:39:28.039Z,8.33
2023-02-23T12:42:03.278Z,7.27
2023-02-23T12:44:39.754Z,7.07
2023-02-23T12:47:21.312Z,7.40
2023-02-23T12:49:57.228Z,6.37
2023-02-23T12:52:31.048Z,8.63
2023-02-23T12:54:59.258Z,8.53
2023-02-23T12:57:38.741Z,6.87
2023-02-23T13:00:31.571Z,4.10
2023-02-23T13:03:43.025Z,6.63
2023-02-23T13:06:17.925Z,4.80
2023-02-23T13:08:59.709Z,5.60
2023-02-23T13:11:50.967Z,6.97
2023-02-23T13:14:26.702Z,5.70
2023-02-23T13:17:01.410Z,8.33
2023-02-23T13:19:36.681Z,5.73
2023-02-23T13:22:23.260Z,5.30
2023-02-23T13:24:54.311Z,4.90
2023-02-23T13:27:27.998Z,5.50
2023-02-23T13:29:59.648Z,9.63
2023-02-23T13:32:32.100Z,5.50
2023-02-23T13:35:03.394Z,9.13
2023-02-23T13:37:36.879Z,7.80
2023-02-23T13:40:20.151Z,6.80
2023-02-23T13:43:01.153Z,5.43
2023-02-23T13:45:42.116Z,6.90
2023-02-23T13:48:25.684Z,13.40
2023-02-23T13:51:04.047Z,6.83
2023-02-23T13:53:41.023Z,5.13
2023-02-23T13:56:12.185Z,9.17
2023-02-23T13:58:48.106Z,5.60
2023-02-23T14:01:19.076Z,8.80
2023-02-23T14:03:55.803Z,7.67
2023-02-23T14:06:28.633Z,7.87
2023-02-23T14:09:01.073Z,7.57
2023-02-23T14:11:43.618Z,5.93
2023-02-23T14:14:17.052Z,5.60
2023-02-23T14:17:05.750Z,11.40
2023-02-23T14:19:38.099Z,6.60
2023-02-23T14:22:11.134Z,8.67
2023-02-23T14:24:39.742Z,13.03
2023-02-23T14:27:41.440Z,9.90
2023-02-23T14:30:25.510Z,4.33
2023-02-23T14:32:54.876Z,5.73
2023-02-23T14:35:44.776Z,6.67
2023-02-23T14:38:25.124Z,6.43
2023-02-23T14:40:57.188Z,9.13
2023-02-23T14:43:44.420Z,5.77
2023-02-23T14:46:25.517Z,5.57
2023-02-23T14:49:00.216Z,11.00
2023-02-23T14:51:39.698Z,5.70
2023-02-23T14:54:22.679Z,5.60
2023-02-23T14:56:53.252Z,8.17
2023-02-23T14:59:23.238Z,6.47
2023-02-23T15:01:52.502Z,7.30
2023-02-23T15:04:23.363Z,5.80
2023-02-23T15:06:56.282Z,4.40
2023-02-23T15:09:33.251Z,6.23
2023-02-23T15:12:05.762Z,9.07
2023-02-23T15:14:38.673Z,5.30
2023-02-23T15:17:08.743Z,6.70
2023-02-23T15:19:40.180Z,15.93
2023-02-23T15:22:25.982Z,6.63
2023-02-23T15:24:58.425Z,5.85
2023-02-23T15:27:33.661Z,6.43
2023-02-23T15:30:18.778Z,5.03
2023-02-23T15:32:47.233Z,5.67
2023-02-23T15:35:17.552Z,3.77
2023-02-23T15:37:59.467Z,7.63
2023-02-23T15:40:39.260Z,4.75
2023-02-23T15:43:10.353Z,5.90
2023-02-23T15:45:42.841Z,6.37
2023-02-23T15:48:18.323Z,6.27
2023-02-23T15:50:50.542Z,4.83
2023-02-23T15:53:30.082Z,7.53
2023-02-23T15:56:03.706Z,7.00
2023-02-23T15:58:44.534Z,9.80
2023-02-23T16:01:24.945Z,11.03
2023-02-23T16:04:09.346Z,7.72
2023-02-23T16:06:41.821Z,8.73
2023-02-23T16:09:25.172Z,6.13
2023-02-23T16:11:57.097Z,7.32
2023-02-23T16:14:32.015Z,8.07
2023-02-23T16:17:10.915Z,7.10
2023-02-23T16:19:41.712Z,6.40
2023-02-23T16:22:21.637Z,9.43
2023-02-23T16:24:59.096Z,12.25
2023-02-23T16:27:28.878Z,8.32
2023-02-23T16:30:00.427Z,13.50
2023-02-23T16:32:36.384Z,8.07
2023-02-23T16:35:12.962Z,8.80
2023-02-23T16:37:59.524Z,7.32
2023-02-23T16:40:29.512Z,12.55
2023-02-23T16:42:59.550Z,7.35
2023-02-23T16:45:29.763Z,6.32
2023-02-23T16:48:02.441Z,9.32
2023-02-23T16:50:32.678Z,5.13
2023-02-23T16:53:03.597Z,7.90
2023-02-23T16:55:40.000Z,7.65
2023-02-23T16:58:12.205Z,7.97
2023-02-23T17:00:40.672Z,7.82
2023-02-23T17:03:17.506Z,6.95
2023-02-23T17:05:45.742Z,5.57
2023-02-23T17:08:14.010Z,5.35
2023-02-23T17:10:45.005Z,5.75
2023-02-23T17:13:18.177Z,20.07
2023-02-23T17:15:51.819Z,7.80
2023-02-23T17:18:22.194Z,7.32
2023-02-23T17:25:15.356Z,8.25
2023-02-23T17:27:45.161Z,7.68
2023-02-23T17:30:14.836Z,8.50
2023-02-23T17:33:14.408Z,6.03
2023-02-23T17:35:42.926Z,8.88
2023-02-23T17:38:17.419Z,7.78
2023-02-23T17:40:45.644Z,12.27
2023-02-23T17:43:17.822Z,11.38
2023-02-23T17:45:49.876Z,9.97
2023-02-23T17:48:19.824Z,9.88
2023-02-23T17:50:48.243Z,11.85
2023-02-23T17:53:16.637Z,11.35
2023-02-23T17:56:16.222Z,10.00
2023-02-23T17:58:56.891Z,9.60
2023-02-23T18:01:29.277Z,13.60
2023-02-23T18:03:58.660Z,11.60
2023-02-23T18:06:33.119Z,16.23
2023-02-23T18:09:04.825Z,9.82
2023-02-23T18:11:34.159Z,12.38
2023-02-23T18:14:05.226Z,12.45
2023-02-23T18:16:37.416Z,12.20
2023-02-23T18:19:10.696Z,16.33
2023-02-23T18:21:41.752Z,14.05
2023-02-23T18:24:10.142Z,9.05
2023-02-23T18:26:38.865Z,17.35
2023-02-23T18:29:20.384Z,13.88
2023-02-23T18:31:49.921Z,13.20
2023-02-23T18:34:18.332Z,14.05
2023-02-23T18:36:47.444Z,9.85
2023-02-23T18:39:15.713Z,11.75
2023-02-23T18:41:44.095Z,14.07
2023-02-23T18:44:16.138Z,17.90
2023-02-23T18:46:45.441Z,13.77
2023-02-23T18:49:15.857Z,11.02
2023-02-23T18:51:44.252Z,8.82
2023-02-23T18:54:16.890Z,9.70
2023-02-23T18:56:46.195Z,27.00
2023-02-23T18:59:16.360Z,10.73
2023-02-23T19:01:48.004Z,8.02
2023-02-23T19:04:16.365Z,12.73
2023-02-23T19:06:47.219Z,14.88
2023-02-23T19:09:19.667Z,9.95
2023-02-23T19:11:48.607Z,15.40
2023-02-23T19:14:22.092Z,12.00
2023-02-23T19:16:52.244Z,11.07
2023-02-23T19:19:21.102Z,8.88
2023-02-23T19:21:49.453Z,10.13
2023-02-23T19:24:17.647Z,10.57
2023-02-23T19:26:45.942Z,9.50
2023-02-23T19:29:14.240Z,10.98
2023-02-23T19:31:44.064Z,10.45
2023-02-23T19:34:15.394Z,9.80
2023-02-23T19:36:46.459Z,10.82
2023-02-23T19:39:15.633Z,12.35
2023-02-23T19:41:45.241Z,14.82
2023-02-23T19:44:13.440Z,14.18
2023-02-23T19:46:43.261Z,13.38
2023-02-23T19:49:11.808Z,10.18
2023-02-23T19:51:40.418Z,13.13
2023-02-23T19:54:09.117Z,17.35
2023-02-23T19:56:38.296Z,9.40
2023-02-23T19:59:07.289Z,10.10
2023-02-23T20:01:36.229Z,11.32
2023-02-23T20:04:08.479Z,12.50
2023-02-23T20:06:44.678Z,15.95
2023-02-23T20:09:12.957Z,11.57
2023-02-23T20:11:42.634Z,13.82
2023-02-23T20:14:12.511Z,9.27
2023-02-23T20:16:41.085Z,11.55
2023-02-23T20:19:11.721Z,13.65
2023-02-23T20:21:42.079Z,18.10
2023-02-23T20:24:12.789Z,13.10
2023-02-23T20:26:40.996Z,10.65
2023-02-23T20:29:11.721Z,10.93
2023-02-23T20:31:44.947Z,12.95
2023-02-23T20:34:14.764Z,8.40
2023-02-23T20:36:43.734Z,16.30
2023-02-23T20:39:14.381Z,17.17
2023-02-23T20:41:43.463Z,10.60
2023-02-23T20:44:12.785Z,14.05
2023-02-23T20:46:42.002Z,10.45
2023-02-23T20:49:15.108Z,11.77
2023-02-23T20:51:45.474Z,9.48
2023-02-23T20:54:15.172Z,15.18
2023-02-23T20:56:44.018Z,15.20
2023-02-23T20:59:13.872Z,19.02
2023-02-23T21:01:44.952Z,12.57
2023-02-23T21:04:14.638Z,14.65
2023-02-23T21:06:43.232Z,13.63
2023-02-23T21:09:18.979Z,19.58
2023-02-23T21:11:47.995Z,16.48
2023-02-23T21:14:16.824Z,14.15
2023-02-23T21:16:46.692Z,20.50
2023-02-23T21:19:22.270Z,17.02
2023-02-23T21:21:57.856Z,27.95
2023-02-23T21:24:27.208Z,15.55
2023-02-23T21:26:55.597Z,18.00
2023-02-23T21:29:24.166Z,13.45
2023-02-23T21:31:52.954Z,12.32
2023-02-23T21:34:22.814Z,27.75
2023-02-23T21:36:51.937Z,13.52
2023-02-23T21:39:21.656Z,18.17
2023-02-23T21:41:49.958Z,12.95
2023-02-23T21:44:18.158Z,18.35
2023-02-23T21:46:46.684Z,16.45
2023-02-23T21:49:14.990Z,12.13
2023-02-23T21:51:44.617Z,16.58
2023-02-23T21:54:12.898Z,18.48
2023-02-23T21:56:41.100Z,16.08
2023-02-23T21:59:09.565Z,23.05
2023-02-23T22:01:39.641Z,14.75
2023-02-23T22:04:09.669Z,20.55
2023-02-23T22:06:40.189Z,21.55
2023-02-23T22:09:11.424Z,13.38
2023-02-23T22:11:43.545Z,15.43
2023-02-23T22:14:12.229Z,33.05
2023-02-23T22:16:42.395Z,16.50
2023-02-23T22:19:14.106Z,15.73
2023-02-23T22:21:43.507Z,19.98
2023-02-23T22:24:14.582Z,16.92
2023-02-23T22:26:46.916Z,19.52
2023-02-23T22:29:15.675Z,16.63
2023-02-23T22:31:44.167Z,20.75
2023-02-23T22:34:12.609Z,17.92
2023-02-23T22:36:42.054Z,17.50
2023-02-23T22:39:10.533Z,21.42
2023-02-23T22:41:42.446Z,17.42
2023-02-23T22:44:13.481Z,17.58
2023-02-23T22:46:42.549Z,27.77
2023-02-23T22:49:11.887Z,16.15
2023-02-23T22:51:40.545Z,30.55
2023-02-23T22:54:09.613Z,16.23
2023-02-23T22:56:39.746Z,23.58
2023-02-23T22:59:10.846Z,23.25
2023-02-23T23:01:41.314Z,15.65
2023-02-23T23:04:11.167Z,13.88
2023-02-23T23:06:41.314Z,20.63
2023-02-23T23:09:11.828Z,34.75
2023-02-23T23:11:42.765Z,22.10
2023-02-23T23:14:12.608Z,17.52
2023-02-23T23:16:48.150Z,17.80
2023-02-23T23:19:18.802Z,19.38
2023-02-23T23:21:47.268Z,31.42
2023-02-23T23:24:15.939Z,19.05
2023-02-23T23:26:45.623Z,14.77
2023-02-23T23:29:15.823Z,20.30
2023-02-23T23:31:46.416Z,21.65
2023-02-23T23:34:21.699Z,17.88
2023-02-23T23:36:53.199Z,16.00
2023-02-23T23:39:26.150Z,17.33
2023-02-23T23:41:58.529Z,22.58
2023-02-23T23:44:29.525Z,26.50
2023-02-23T23:46:58.152Z,22.15
2023-02-23T23:49:27.054Z,18.25
2023-02-23T23:51:57.174Z,18.80
2023-02-23T23:54:27.733Z,17.35
2023-02-23T23:56:57.932Z,19.23
2023-02-23T23:59:27.216Z,15.98
